createdAt,value
2023-05-17T00:00:59.194Z,7.50
2023-05-17T00:01:59.157Z,7.90
2023-05-17T00:02:59.160Z,7.80
2023-05-17T00:03:59.125Z,7.50
2023-05-17T00:04:59.348Z,7.40
2023-05-17T00:05:59.123Z,10.60
2023-05-17T00:06:59.042Z,8.60
2023-05-17T00:07:59.006Z,6.40
2023-05-17T00:08:58.998Z,8.10
2023-05-17T00:09:58.963Z,8.40
2023-05-17T00:10:58.991Z,8.70
2023-05-17T00:11:58.910Z,9.10
2023-05-17T00:12:58.890Z,8.10
2023-05-17T00:13:58.862Z,8.30
2023-05-17T00:14:58.855Z,7.50
2023-05-17T00:15:58.816Z,9.40
2023-05-17T00:16:58.901Z,8.10
2023-05-17T00:17:58.858Z,8.40
2023-05-17T00:18:58.882Z,7.40
2023-05-17T00:19:58.717Z,7.80
2023-05-17T00:20:58.730Z,7.00
2023-05-17T00:21:58.684Z,8.40
2023-05-17T00:22:58.681Z,8.10
2023-05-17T00:23:58.622Z,9.60
2023-05-17T00:24:58.644Z,11.00
2023-05-17T00:25:58.567Z,7.60
2023-05-17T00:26:58.673Z,7.10
2023-05-17T00:27:58.534Z,7.40
2023-05-17T00:28:58.504Z,6.30
2023-05-17T00:29:58.485Z,7.70
2023-05-17T00:30:58.442Z,7.30
2023-05-17T00:31:58.498Z,8.80
2023-05-17T00:32:58.460Z,7.50
2023-05-17T00:33:58.385Z,7.20
2023-05-17T00:34:58.438Z,6.70
2023-05-17T00:35:58.332Z,8.40
2023-05-17T00:36:58.302Z,8.70
2023-05-17T00:37:58.270Z,8.70
2023-05-17T00:38:58.246Z,7.80
2023-05-17T00:39:58.218Z,7.40
2023-05-17T00:40:58.201Z,7.40
2023-05-17T00:41:58.180Z,6.80
2023-05-17T00:42:58.251Z,6.60
2023-05-17T00:43:58.125Z,7.70
2023-05-17T00:44:58.101Z,7.50
2023-05-17T00:45:58.077Z,7.60
2023-05-17T00:46:58.066Z,8.40
2023-05-17T00:47:58.218Z,9.40
2023-05-17T00:48:58.005Z,7.70
2023-05-17T00:49:57.976Z,8.00
2023-05-17T00:50:57.972Z,7.80
2023-05-17T00:51:57.927Z,8.60
2023-05-17T00:52:57.906Z,9.40
2023-05-17T00:53:57.886Z,6.70
2023-05-17T00:54:57.851Z,8.40
2023-05-17T00:55:57.829Z,6.80
2023-05-17T00:56:57.803Z,7.90
2023-05-17T00:57:57.778Z,8.70
2023-05-17T00:58:57.858Z,7.70
2023-05-17T00:59:57.729Z,8.70
2023-05-17T01:00:57.711Z,7.60
2023-05-17T01:01:57.691Z,8.70
2023-05-17T01:02:57.686Z,9.20
2023-05-17T01:03:57.757Z,7.70
2023-05-17T01:04:57.763Z,7.70
2023-05-17T01:05:57.584Z,11.10
2023-05-17T01:06:57.554Z,7.80
2023-05-17T01:07:57.532Z,6.80
2023-05-17T01:08:57.505Z,11.20
2023-05-17T01:09:57.476Z,8.50
2023-05-17T01:10:57.460Z,10.20
2023-05-17T01:11:57.428Z,11.80
2023-05-17T01:12:57.408Z,6.50
2023-05-17T01:13:57.392Z,9.20
2023-05-17T01:14:57.472Z,7.80
2023-05-17T01:15:57.343Z,7.70
2023-05-17T01:16:57.333Z,8.20
2023-05-17T01:17:57.376Z,7.10
2023-05-17T01:18:57.320Z,10.10
2023-05-17T01:19:57.477Z,9.90
2023-05-17T01:20:57.216Z,12.70
2023-05-17T01:21:57.184Z,13.60
2023-05-17T01:22:57.195Z,7.70
2023-05-17T01:23:57.138Z,8.00
2023-05-17T01:24:57.109Z,9.80
2023-05-17T01:25:57.077Z,8.80
2023-05-17T01:26:57.070Z,9.50
2023-05-17T01:27:57.027Z,10.40
2023-05-17T01:28:57.010Z,13.00
2023-05-17T01:29:56.991Z,9.30
2023-05-17T01:30:57.071Z,12.00
2023-05-17T01:31:56.927Z,10.40
2023-05-17T01:32:56.948Z,8.40
2023-05-17T01:33:56.895Z,11.30
2023-05-17T01:34:56.859Z,9.90
2023-05-17T01:35:56.829Z,13.90
2023-05-17T01:36:56.818Z,12.20
2023-05-17T01:37:56.793Z,10.70
2023-05-17T01:38:56.792Z,9.00
2023-05-17T01:39:56.732Z,13.80
2023-05-17T01:40:56.759Z,8.90
2023-05-17T01:41:56.677Z,13.20
2023-05-17T01:42:56.676Z,9.40
2023-05-17T01:43:56.642Z,10.20
2023-05-17T01:44:56.604Z,9.20
2023-05-17T01:45:56.580Z,10.20
2023-05-17T01:46:56.710Z,13.20
2023-05-17T01:47:56.595Z,8.80
2023-05-17T01:48:56.630Z,9.60
2023-05-17T01:49:56.483Z,9.30
2023-05-17T01:50:56.457Z,9.80
2023-05-17T01:51:56.430Z,11.70
2023-05-17T01:52:56.408Z,12.50
2023-05-17T01:53:56.387Z,9.60
2023-05-17T01:54:56.367Z,12.40
2023-05-17T01:55:56.331Z,12.30
2023-05-17T01:56:56.304Z,12.10
2023-05-17T01:57:56.285Z,13.60
2023-05-17T01:58:56.254Z,12.80
2023-05-17T01:59:56.234Z,14.20
2023-05-17T02:00:56.208Z,10.00
2023-05-17T02:01:56.189Z,8.70
2023-05-17T02:02:56.369Z,9.60
2023-05-17T02:03:56.150Z,8.30
2023-05-17T02:04:56.131Z,9.40
2023-05-17T02:05:56.092Z,9.30
2023-05-17T02:06:56.063Z,11.00
2023-05-17T02:07:56.043Z,9.80
2023-05-17T02:08:56.003Z,8.30
2023-05-17T02:09:56.013Z,9.70
2023-05-17T02:10:55.959Z,10.10
2023-05-17T02:11:55.940Z,10.20
2023-05-17T02:12:55.907Z,15.80
2023-05-17T02:13:55.887Z,11.40
2023-05-17T02:14:55.856Z,11.10
2023-05-17T02:15:55.850Z,8.70
2023-05-17T02:16:55.838Z,10.50
2023-05-17T02:17:55.930Z,9.40
2023-05-17T02:18:56.143Z,8.20
2023-05-17T02:19:55.736Z,11.60
2023-05-17T02:20:55.709Z,10.30
2023-05-17T02:21:55.702Z,9.60
2023-05-17T02:22:55.672Z,9.70
2023-05-17T02:23:55.640Z,9.80
2023-05-17T02:24:55.612Z,10.00
2023-05-17T02:25:55.587Z,11.60
2023-05-17T02:26:55.564Z,9.30
2023-05-17T02:27:55.532Z,9.00
2023-05-17T02:28:55.507Z,11.30
2023-05-17T02:29:55.497Z,8.20
2023-05-17T02:30:55.460Z,9.40
2023-05-17T02:31:55.435Z,10.30
2023-05-17T02:32:55.460Z,10.60
2023-05-17T02:33:55.456Z,10.10
2023-05-17T02:34:55.457Z,8.60
2023-05-17T02:35:55.338Z,10.30
2023-05-17T02:36:55.311Z,11.00
2023-05-17T02:37:55.292Z,11.80
2023-05-17T02:38:55.259Z,9.90
2023-05-17T02:39:55.232Z,10.10
2023-05-17T02:40:55.211Z,9.50
2023-05-17T02:41:55.190Z,11.30
2023-05-17T02:42:55.160Z,12.20
2023-05-17T02:43:55.140Z,9.70
2023-05-17T02:44:55.113Z,10.10
2023-05-17T02:45:55.085Z,11.40
2023-05-17T02:46:55.102Z,9.10
2023-05-17T02:47:55.056Z,8.40
2023-05-17T02:48:55.013Z,10.00
2023-05-17T02:49:54.986Z,8.40
2023-05-17T02:50:55.059Z,12.60
2023-05-17T02:51:54.936Z,10.80
2023-05-17T02:52:54.913Z,9.70
2023-05-17T02:53:54.892Z,8.90
2023-05-17T02:54:54.861Z,8.60
2023-05-17T02:55:54.850Z,8.70
2023-05-17T02:56:54.834Z,7.90
2023-05-17T02:57:54.790Z,11.90
2023-05-17T02:58:54.763Z,9.10
2023-05-17T02:59:54.739Z,13.20
2023-05-17T03:00:54.713Z,8.10
2023-05-17T03:01:54.688Z,11.10
2023-05-17T03:02:54.692Z,8.40
2023-05-17T03:03:54.800Z,9.20
2023-05-17T03:04:54.662Z,10.00
2023-05-17T03:05:54.601Z,7.90
2023-05-17T03:06:54.702Z,9.50
2023-05-17T03:07:54.551Z,11.70
2023-05-17T03:08:54.518Z,9.20
2023-05-17T03:09:54.483Z,10.80
2023-05-17T03:10:54.470Z,11.50
2023-05-17T03:11:54.439Z,8.40
2023-05-17T03:12:54.408Z,11.30
2023-05-17T03:13:54.397Z,8.90
2023-05-17T03:14:54.363Z,11.20
2023-05-17T03:15:54.365Z,9.20
2023-05-17T03:16:54.316Z,9.80
2023-05-17T03:17:54.353Z,11.20
2023-05-17T03:18:54.464Z,11.10
2023-05-17T03:19:54.367Z,10.50
2023-05-17T03:20:54.255Z,8.60
2023-05-17T03:21:54.190Z,8.80
2023-05-17T03:22:54.301Z,9.30
2023-05-17T03:23:54.138Z,12.30
2023-05-17T03:24:54.179Z,10.30
2023-05-17T03:25:54.089Z,13.50
2023-05-17T03:26:54.071Z,13.50
2023-05-17T03:27:54.107Z,9.30
2023-05-17T03:28:54.013Z,12.90
2023-05-17T03:29:53.987Z,11.10
2023-05-17T03:30:53.990Z,14.00
2023-05-17T03:31:53.939Z,9.20
2023-05-17T03:32:53.988Z,14.60
2023-05-17T03:33:54.001Z,15.10
2023-05-17T03:34:53.869Z,11.50
2023-05-17T03:35:53.831Z,15.00
2023-05-17T03:36:53.811Z,13.10
2023-05-17T03:37:53.790Z,10.70
2023-05-17T03:38:53.792Z,12.10
2023-05-17T03:39:53.743Z,11.50
2023-05-17T03:40:53.713Z,10.00
2023-05-17T03:41:53.701Z,13.20
2023-05-17T03:42:53.658Z,10.70
2023-05-17T03:43:53.639Z,12.40
2023-05-17T03:44:53.611Z,14.20
2023-05-17T03:45:53.586Z,12.30
2023-05-17T03:46:53.561Z,11.40
2023-05-17T03:47:53.634Z,13.20
2023-05-17T03:48:53.564Z,11.40
2023-05-17T03:49:53.494Z,10.80
2023-05-17T03:50:53.459Z,11.80
2023-05-17T03:51:53.437Z,11.00
2023-05-17T03:52:53.412Z,11.90
2023-05-17T03:53:53.387Z,13.10
2023-05-17T03:54:53.457Z,11.30
2023-05-17T03:55:53.342Z,11.40
2023-05-17T03:56:53.320Z,8.70
2023-05-17T03:57:53.296Z,9.00
2023-05-17T03:58:53.269Z,10.00
2023-05-17T03:59:53.238Z,10.20
2023-05-17T04:00:53.274Z,10.50
2023-05-17T04:01:53.215Z,10.80
2023-05-17T04:02:53.215Z,10.90
2023-05-17T04:03:53.177Z,10.30
2023-05-17T04:04:53.407Z,10.20
2023-05-17T04:05:53.096Z,9.80
2023-05-17T04:06:53.063Z,8.60
2023-05-17T04:07:53.088Z,12.00
2023-05-17T04:08:53.023Z,12.70
2023-05-17T04:09:52.991Z,9.70
2023-05-17T04:10:52.986Z,14.10
2023-05-17T04:11:52.939Z,11.00
2023-05-17T04:12:52.907Z,14.00
2023-05-17T04:13:52.892Z,15.10
2023-05-17T04:14:52.865Z,12.40
2023-05-17T04:15:52.840Z,16.80
2023-05-17T04:16:52.821Z,10.90
2023-05-17T04:17:52.913Z,12.70
2023-05-17T04:18:52.942Z,13.40
2023-05-17T04:19:52.879Z,12.30
2023-05-17T04:20:52.709Z,12.80
2023-05-17T04:21:52.708Z,13.10
2023-05-17T04:22:52.683Z,13.70
2023-05-17T04:23:52.650Z,12.90
2023-05-17T04:24:52.623Z,10.50
2023-05-17T04:25:52.595Z,12.80
2023-05-17T04:26:52.754Z,13.50
2023-05-17T04:27:52.544Z,12.20
2023-05-17T04:28:52.516Z,12.70
2023-05-17T04:29:52.488Z,11.60
2023-05-17T04:30:52.458Z,10.50
2023-05-17T04:31:52.441Z,11.70
2023-05-17T04:32:52.461Z,13.30
2023-05-17T04:33:52.441Z,11.70
2023-05-17T04:34:52.358Z,10.70
2023-05-17T04:35:52.344Z,10.70
2023-05-17T04:36:52.318Z,13.50
2023-05-17T04:37:52.286Z,12.50
2023-05-17T04:38:52.273Z,13.40
2023-05-17T04:39:52.247Z,12.50
2023-05-17T04:40:52.238Z,12.80
2023-05-17T04:41:52.185Z,13.00
2023-05-17T04:42:52.180Z,12.40
2023-05-17T04:43:52.137Z,13.50
2023-05-17T04:44:52.112Z,11.00
2023-05-17T04:45:52.090Z,12.10
2023-05-17T04:46:52.078Z,14.80
2023-05-17T04:47:52.134Z,13.30
2023-05-17T04:48:52.190Z,12.50
2023-05-17T04:49:52.011Z,11.80
2023-05-17T04:50:51.961Z,13.30
2023-05-17T04:51:51.934Z,12.70
2023-05-17T04:52:51.911Z,11.90
2023-05-17T04:53:51.895Z,10.80
2023-05-17T04:54:51.870Z,15.80
2023-05-17T04:55:51.843Z,12.30
2023-05-17T04:56:51.819Z,14.10
2023-05-17T04:57:51.788Z,12.50
2023-05-17T04:58:53.009Z,13.30
2023-05-17T04:59:51.738Z,15.00
2023-05-17T05:00:51.710Z,13.80
2023-05-17T05:01:51.688Z,12.50
2023-05-17T05:02:51.713Z,12.80
2023-05-17T05:03:51.673Z,14.90
2023-05-17T05:04:51.626Z,14.50
2023-05-17T05:05:51.589Z,14.40
2023-05-17T05:06:51.557Z,14.10
2023-05-17T05:07:51.533Z,11.60
2023-05-17T05:08:51.514Z,13.00
2023-05-17T05:09:51.485Z,16.10
2023-05-17T05:10:51.509Z,17.10
2023-05-17T05:11:51.435Z,16.90
2023-05-17T05:12:51.408Z,14.00
2023-05-17T05:13:51.381Z,14.90
2023-05-17T05:14:51.538Z,15.00
2023-05-17T05:15:51.337Z,16.10
2023-05-17T05:16:51.303Z,15.20
2023-05-17T05:17:51.389Z,11.90
2023-05-17T05:18:51.501Z,15.20
2023-05-17T05:19:51.279Z,13.80
2023-05-17T05:20:51.200Z,15.20
2023-05-17T05:21:51.187Z,16.40
2023-05-17T05:22:51.155Z,17.00
2023-05-17T05:23:51.139Z,16.70
2023-05-17T05:24:51.105Z,13.50
2023-05-17T05:25:51.085Z,13.90
2023-05-17T05:26:51.060Z,14.80
2023-05-17T05:27:51.033Z,17.00
2023-05-17T05:28:51.002Z,19.20
2023-05-17T05:29:50.990Z,15.00
2023-05-17T05:30:51.099Z,18.40
2023-05-17T05:31:50.930Z,17.10
2023-05-17T05:32:50.974Z,17.90
2023-05-17T05:33:50.893Z,15.10
2023-05-17T05:34:50.862Z,15.10
2023-05-17T05:35:50.831Z,13.90
2023-05-17T05:36:50.811Z,15.50
2023-05-17T05:37:50.779Z,17.40
2023-05-17T05:38:50.752Z,19.40
2023-05-17T05:39:50.730Z,14.70
2023-05-17T05:40:50.705Z,10.70
2023-05-17T05:41:50.680Z,15.10
2023-05-17T05:42:50.658Z,11.10
2023-05-17T05:43:50.632Z,14.00
2023-05-17T05:44:50.617Z,13.90
2023-05-17T05:45:50.588Z,14.50
2023-05-17T05:46:50.703Z,16.50
2023-05-17T05:47:50.555Z,16.90
2023-05-17T05:48:50.557Z,13.10
2023-05-17T05:49:50.485Z,14.40
2023-05-17T05:50:50.454Z,20.20
2023-05-17T05:51:50.438Z,17.50
2023-05-17T05:52:50.403Z,14.90
2023-05-17T05:53:50.379Z,16.80
2023-05-17T05:54:50.356Z,17.20
2023-05-17T05:55:50.334Z,14.40
2023-05-17T05:56:50.318Z,15.40
2023-05-17T05:57:50.284Z,15.40
2023-05-17T05:58:50.257Z,13.60
2023-05-17T05:59:50.236Z,12.70
2023-05-17T06:00:50.204Z,14.50
2023-05-17T06:01:50.180Z,11.30
2023-05-17T06:02:50.301Z,14.30
2023-05-17T06:03:50.150Z,15.70
2023-05-17T06:04:50.107Z,11.90
2023-05-17T06:05:50.179Z,16.00
2023-05-17T06:06:50.174Z,13.50
2023-05-17T06:07:50.127Z,13.70
2023-05-17T06:08:50.018Z,11.70
2023-05-17T06:09:49.982Z,14.10
2023-05-17T06:10:49.965Z,12.90
2023-05-17T06:11:49.933Z,13.80
2023-05-17T06:12:49.911Z,14.20
2023-05-17T06:13:49.985Z,12.10
2023-05-17T06:14:49.862Z,18.10
2023-05-17T06:15:49.834Z,12.60
2023-05-17T06:16:49.813Z,13.80
2023-05-17T06:17:49.879Z,11.40
2023-05-17T06:18:51.440Z,14.70
2023-05-17T06:19:49.753Z,14.40
2023-05-17T06:20:49.713Z,12.50
2023-05-17T06:21:49.687Z,15.10
2023-05-17T06:22:49.657Z,13.40
2023-05-17T06:23:49.635Z,12.40
2023-05-17T06:24:49.620Z,14.00
2023-05-17T06:25:49.592Z,13.00
2023-05-17T06:26:49.567Z,13.80
2023-05-17T06:27:49.557Z,14.20
2023-05-17T06:28:49.523Z,13.40
2023-05-17T06:29:49.484Z,11.40
2023-05-17T06:30:49.458Z,10.90
2023-05-17T06:31:49.438Z,15.50
2023-05-17T06:32:49.432Z,12.90
2023-05-17T06:33:49.460Z,10.90
2023-05-17T06:34:49.481Z,14.00
2023-05-17T06:35:57.172Z,14.00
2023-05-17T06:36:49.313Z,12.40
2023-05-17T06:37:49.279Z,10.50
2023-05-17T06:38:49.253Z,12.20
2023-05-17T06:39:55.836Z,15.60
2023-05-17T06:40:49.209Z,14.60
2023-05-17T06:41:49.179Z,13.50
2023-05-17T06:42:49.164Z,13.20
2023-05-17T06:43:49.143Z,12.30
2023-05-17T06:44:49.108Z,13.90
2023-05-17T06:45:49.095Z,9.70
2023-05-17T06:46:49.065Z,12.70
2023-05-17T06:47:49.128Z,12.00
2023-05-17T06:48:51.087Z,9.00
2023-05-17T06:49:48.981Z,12.40
2023-05-17T06:50:49.066Z,9.20
2023-05-17T06:51:48.930Z,10.30
2023-05-17T06:52:48.906Z,10.80
2023-05-17T06:53:48.883Z,12.90
2023-05-17T06:54:48.854Z,11.40
2023-05-17T06:55:48.827Z,9.00
2023-05-17T06:56:49.017Z,12.00
2023-05-17T06:57:48.787Z,11.40
2023-05-17T06:58:48.762Z,11.10
2023-05-17T06:59:48.740Z,13.10
2023-05-17T07:00:48.705Z,9.70
2023-05-17T07:01:48.679Z,8.60
2023-05-17T07:02:48.753Z,11.40
2023-05-17T07:03:48.753Z,11.30
2023-05-17T07:04:48.636Z,13.80
2023-05-17T07:05:48.581Z,10.90
2023-05-17T07:06:48.654Z,9.50
2023-05-17T07:07:48.526Z,12.90
2023-05-17T07:08:48.518Z,11.00
2023-05-17T07:09:48.482Z,12.20
2023-05-17T07:10:48.458Z,10.20
2023-05-17T07:11:48.431Z,9.70
2023-05-17T07:12:48.406Z,12.40
2023-05-17T07:13:48.381Z,10.80
2023-05-17T07:14:48.379Z,9.80
2023-05-17T07:15:48.334Z,9.20
2023-05-17T07:16:48.313Z,10.00
2023-05-17T07:17:48.305Z,11.00
2023-05-17T07:18:48.369Z,11.40
2023-05-17T07:19:48.327Z,8.20
2023-05-17T07:20:48.211Z,11.30
2023-05-17T07:21:48.188Z,9.00
2023-05-17T07:22:48.412Z,11.10
2023-05-17T07:23:48.139Z,8.40
2023-05-17T07:24:48.119Z,11.60
2023-05-17T07:25:48.096Z,11.80
2023-05-17T07:26:49.302Z,9.60
2023-05-17T07:27:48.040Z,11.20
2023-05-17T07:28:48.020Z,9.80
2023-05-17T07:29:48.002Z,10.50
2023-05-17T07:30:47.976Z,12.20
2023-05-17T07:31:47.975Z,13.90
2023-05-17T07:32:47.932Z,9.70
2023-05-17T07:33:47.980Z,12.90
2023-05-17T07:34:47.871Z,11.40
2023-05-17T07:35:47.867Z,12.60
2023-05-17T07:36:47.829Z,10.00
2023-05-17T07:37:47.790Z,8.90
2023-05-17T07:38:48.076Z,11.00
2023-05-17T07:39:47.749Z,9.30
2023-05-17T07:40:47.727Z,10.40
2023-05-17T07:41:47.703Z,7.90
2023-05-17T07:42:47.677Z,8.80
2023-05-17T07:43:47.652Z,11.90
2023-05-17T07:44:47.628Z,9.30
2023-05-17T07:45:47.601Z,9.80
2023-05-17T07:46:47.604Z,8.60
2023-05-17T07:47:47.579Z,8.30
2023-05-17T07:48:47.576Z,10.10
2023-05-17T07:49:47.497Z,7.50
2023-05-17T07:50:47.476Z,8.80
2023-05-17T07:51:47.454Z,11.70
2023-05-17T07:52:47.429Z,9.80
2023-05-17T07:53:47.598Z,9.40
2023-05-17T07:54:47.422Z,8.40
2023-05-17T07:55:47.357Z,8.70
2023-05-17T07:56:47.329Z,8.00
2023-05-17T07:57:47.351Z,11.20
2023-05-17T07:58:47.288Z,11.30
2023-05-17T07:59:47.256Z,7.30
2023-05-17T08:00:47.229Z,8.70
2023-05-17T08:01:47.203Z,11.10
2023-05-17T08:02:47.284Z,11.90
2023-05-17T08:03:47.161Z,7.70
2023-05-17T08:04:47.188Z,12.50
2023-05-17T08:05:47.285Z,10.50
2023-05-17T08:06:47.085Z,8.80
2023-05-17T08:07:47.062Z,7.50
2023-05-17T08:08:47.787Z,10.80
2023-05-17T08:09:47.013Z,10.00
2023-05-17T08:10:47.185Z,8.50
2023-05-17T08:11:46.988Z,10.00
2023-05-17T08:12:46.940Z,8.40
2023-05-17T08:13:46.907Z,10.10
2023-05-17T08:14:46.902Z,10.40
2023-05-17T08:15:46.867Z,9.40
2023-05-17T08:16:46.837Z,8.40
2023-05-17T08:17:46.874Z,10.80
2023-05-17T08:18:46.959Z,10.10
2023-05-17T08:19:46.806Z,9.90
2023-05-17T08:20:46.753Z,11.50
2023-05-17T08:21:46.731Z,9.70
2023-05-17T08:22:46.696Z,10.80
2023-05-17T08:23:46.656Z,11.60
2023-05-17T08:24:46.645Z,9.90
2023-05-17T08:25:46.615Z,10.30
2023-05-17T08:26:46.619Z,7.90
2023-05-17T08:27:46.568Z,7.50
2023-05-17T08:28:46.545Z,7.80
2023-05-17T08:29:46.531Z,10.10
2023-05-17T08:30:46.493Z,13.10
2023-05-17T08:31:46.474Z,8.30
2023-05-17T08:32:46.628Z,9.80
2023-05-17T08:33:46.458Z,9.60
2023-05-17T08:34:46.388Z,8.80
2023-05-17T08:35:46.371Z,8.20
2023-05-17T08:36:46.366Z,9.00
2023-05-17T08:37:46.354Z,11.50
2023-05-17T08:38:46.300Z,8.30
2023-05-17T08:39:46.277Z,11.40
2023-05-17T08:40:46.259Z,10.40
2023-05-17T08:41:46.221Z,13.90
2023-05-17T08:42:46.218Z,7.80
2023-05-17T08:43:46.177Z,12.90
2023-05-17T08:44:46.149Z,9.40
2023-05-17T08:45:46.122Z,9.90
2023-05-17T08:46:46.105Z,9.80
2023-05-17T08:47:46.131Z,9.20
2023-05-17T08:48:46.070Z,9.20
2023-05-17T08:49:48.059Z,8.70
2023-05-17T08:50:46.010Z,9.30
2023-05-17T08:51:45.984Z,8.20
2023-05-17T08:52:46.064Z,9.30
2023-05-17T08:53:45.937Z,10.00
2023-05-17T08:54:45.928Z,9.30
2023-05-17T08:55:45.889Z,8.00
2023-05-17T08:56:45.873Z,10.70
2023-05-17T08:57:45.831Z,10.40
2023-05-17T08:58:56.298Z,9.30
2023-05-17T08:59:45.790Z,7.60
2023-05-17T09:00:45.771Z,8.60
2023-05-17T09:01:45.739Z,10.00
2023-05-17T09:02:45.761Z,7.50
2023-05-17T09:03:45.812Z,11.80
2023-05-17T09:04:45.712Z,11.60
2023-05-17T09:05:45.698Z,9.70
2023-05-17T09:06:45.625Z,7.40
2023-05-17T09:07:45.602Z,8.10
2023-05-17T09:08:45.576Z,11.40
2023-05-17T09:09:45.548Z,7.70
2023-05-17T09:10:45.529Z,9.50
2023-05-17T09:11:45.516Z,9.00
2023-05-17T09:12:45.482Z,9.70
2023-05-17T09:13:45.484Z,8.90
2023-05-17T09:14:45.493Z,6.40
2023-05-17T09:15:45.406Z,10.00
2023-05-17T09:16:45.383Z,10.00
2023-05-17T09:17:45.458Z,7.70
2023-05-17T09:18:45.487Z,11.30
2023-05-17T09:19:45.575Z,8.00
2023-05-17T09:20:45.290Z,9.90
2023-05-17T09:21:45.265Z,11.20
2023-05-17T09:22:45.244Z,11.00
2023-05-17T09:23:51.500Z,11.60
2023-05-17T09:24:45.198Z,8.70
2023-05-17T09:25:45.165Z,10.20
2023-05-17T09:26:45.165Z,10.20
2023-05-17T09:27:45.118Z,9.60
2023-05-17T09:28:45.098Z,7.70
2023-05-17T09:29:45.067Z,7.70
2023-05-17T09:30:45.113Z,10.20
2023-05-17T09:31:45.020Z,7.80
2023-05-17T09:32:45.027Z,9.90
2023-05-17T09:33:44.993Z,11.30
2023-05-17T09:34:44.964Z,7.60
2023-05-17T09:35:44.933Z,9.50
2023-05-17T09:36:44.908Z,8.40
2023-05-17T09:37:44.883Z,9.60
2023-05-17T09:38:44.864Z,9.70
2023-05-17T09:39:44.881Z,8.20
2023-05-17T09:40:44.844Z,7.30
2023-05-17T09:41:44.793Z,7.70
2023-05-17T09:42:44.771Z,8.00
2023-05-17T09:43:44.748Z,8.80
2023-05-17T09:44:44.726Z,9.70
2023-05-17T09:45:44.707Z,7.20
2023-05-17T09:46:44.721Z,7.90
2023-05-17T09:47:44.727Z,9.10
2023-05-17T09:48:44.710Z,8.00
2023-05-17T09:49:44.610Z,7.40
2023-05-17T09:50:44.582Z,8.00
2023-05-17T09:51:44.586Z,9.20
2023-05-17T09:52:44.544Z,9.10
2023-05-17T09:53:44.522Z,8.80
2023-05-17T09:54:44.498Z,8.60
2023-05-17T09:55:44.479Z,6.90
2023-05-17T09:56:44.450Z,8.20
2023-05-17T09:57:44.421Z,8.30
2023-05-17T09:58:44.414Z,8.40
2023-05-17T09:59:44.375Z,8.50
2023-05-17T10:00:44.354Z,8.70
2023-05-17T10:01:44.324Z,7.50
2023-05-17T10:02:44.384Z,11.40
2023-05-17T10:03:44.353Z,9.40
2023-05-17T10:04:44.296Z,6.10
2023-05-17T10:05:44.236Z,9.40
2023-05-17T10:06:48.102Z,9.40
2023-05-17T10:07:44.194Z,8.50
2023-05-17T10:08:44.169Z,9.00
2023-05-17T10:09:44.148Z,9.90
2023-05-17T10:10:44.122Z,11.20
2023-05-17T10:11:44.132Z,8.00
2023-05-17T10:12:44.082Z,9.40
2023-05-17T10:13:44.063Z,11.30
2023-05-17T10:14:44.091Z,9.40
2023-05-17T10:15:44.004Z,9.20
2023-05-17T10:16:43.996Z,8.60
2023-05-17T10:17:45.568Z,7.70
2023-05-17T10:18:44.054Z,6.50
2023-05-17T10:19:44.163Z,8.90
2023-05-17T10:20:43.900Z,7.80
2023-05-17T10:21:43.867Z,9.40
2023-05-17T10:22:43.846Z,7.40
2023-05-17T10:23:43.821Z,8.20
2023-05-17T10:24:43.797Z,9.80
2023-05-17T10:25:43.777Z,8.50
2023-05-17T10:26:43.754Z,9.00
2023-05-17T10:27:43.734Z,6.60
2023-05-17T10:28:43.703Z,7.20
2023-05-17T10:29:43.701Z,6.80
2023-05-17T10:30:43.659Z,7.60
2023-05-17T10:31:43.643Z,9.40
2023-05-17T10:32:43.717Z,7.30
2023-05-17T10:33:43.732Z,7.00
2023-05-17T10:34:44.506Z,8.80
2023-05-17T10:35:43.546Z,8.00
2023-05-17T10:36:43.549Z,6.10
2023-05-17T10:37:43.498Z,6.00
2023-05-17T10:38:43.471Z,8.00
2023-05-17T10:39:43.465Z,6.00
2023-05-17T10:40:43.428Z,7.00
2023-05-17T10:41:43.429Z,8.10
2023-05-17T10:42:43.404Z,7.10
2023-05-17T10:43:43.371Z,7.20
2023-05-17T10:44:43.336Z,8.30
2023-05-17T10:45:43.313Z,9.30
2023-05-17T10:46:43.289Z,8.50
2023-05-17T10:47:43.324Z,8.90
2023-05-17T10:48:43.329Z,7.20
2023-05-17T10:49:43.225Z,6.20
2023-05-17T10:50:54.471Z,10.80
2023-05-17T10:51:43.172Z,8.50
2023-05-17T10:52:43.141Z,6.80
2023-05-17T10:53:43.131Z,7.20
2023-05-17T10:54:43.121Z,8.00
2023-05-17T10:55:43.098Z,9.50
2023-05-17T10:56:43.061Z,7.60
2023-05-17T10:57:51.044Z,11.20
2023-05-17T10:58:43.012Z,7.40
2023-05-17T10:59:42.984Z,8.60
2023-05-17T11:00:42.960Z,8.50
2023-05-17T11:01:42.940Z,8.20
2023-05-17T11:02:42.968Z,7.70
2023-05-17T11:03:42.894Z,7.10
2023-05-17T11:04:42.894Z,9.20
2023-05-17T11:05:42.908Z,8.00
2023-05-17T11:06:42.956Z,10.60
2023-05-17T11:07:42.798Z,9.60
2023-05-17T11:08:42.779Z,7.30
2023-05-17T11:09:42.758Z,10.50
2023-05-17T11:10:42.731Z,8.40
2023-05-17T11:11:42.710Z,6.50
2023-05-17T11:12:42.683Z,8.50
2023-05-17T11:13:42.664Z,11.60
2023-05-17T11:14:42.650Z,9.90
2023-05-17T11:15:42.617Z,8.40
2023-05-17T11:16:42.593Z,7.30
2023-05-17T11:17:42.656Z,10.10
2023-05-17T11:18:42.724Z,7.40
2023-05-17T11:19:42.586Z,6.40
2023-05-17T11:20:42.682Z,10.10
2023-05-17T11:21:42.494Z,7.50
2023-05-17T11:22:42.483Z,7.10
2023-05-17T11:23:42.426Z,9.10
2023-05-17T11:24:42.405Z,8.40
2023-05-17T11:25:42.385Z,7.50
2023-05-17T11:26:42.358Z,8.00
2023-05-17T11:27:42.341Z,9.90
2023-05-17T11:28:42.332Z,8.20
2023-05-17T11:29:42.295Z,7.90
2023-05-17T11:30:42.272Z,6.00
2023-05-17T11:31:42.250Z,6.80
2023-05-17T11:32:42.264Z,7.60
2023-05-17T11:33:42.351Z,9.30
2023-05-17T11:34:42.402Z,6.50
2023-05-17T11:35:42.160Z,8.40
2023-05-17T11:36:42.128Z,9.70
2023-05-17T11:37:42.115Z,8.20
2023-05-17T11:38:42.116Z,8.50
2023-05-17T11:39:42.063Z,7.60
2023-05-17T11:40:42.126Z,9.00
2023-05-17T11:41:42.024Z,11.20
2023-05-17T11:42:41.990Z,6.80
2023-05-17T11:43:41.972Z,10.80
2023-05-17T11:44:41.951Z,7.60
2023-05-17T11:45:41.933Z,11.70
2023-05-17T11:46:41.912Z,9.70
2023-05-17T11:47:41.961Z,9.70
2023-05-17T11:48:41.909Z,8.20
2023-05-17T11:49:41.837Z,7.80
2023-05-17T11:50:41.813Z,9.90
2023-05-17T11:51:41.794Z,7.40
2023-05-17T11:52:41.778Z,9.70
2023-05-17T11:53:41.747Z,8.50
2023-05-17T11:54:41.752Z,8.10
2023-05-17T11:55:41.698Z,8.90
2023-05-17T11:56:43.196Z,9.50
2023-05-17T11:57:41.654Z,7.80
2023-05-17T11:58:41.636Z,8.70
2023-05-17T11:59:41.633Z,8.60
2023-05-17T12:00:41.600Z,10.60
2023-05-17T12:01:41.567Z,8.50
2023-05-17T12:02:41.554Z,6.60
2023-05-17T12:03:41.520Z,7.80
2023-05-17T12:04:41.520Z,8.50
2023-05-17T12:05:41.479Z,8.30
2023-05-17T12:06:41.480Z,9.10
2023-05-17T12:07:41.427Z,8.10
2023-05-17T12:08:41.409Z,9.70
2023-05-17T12:09:41.398Z,8.80
2023-05-17T12:10:41.456Z,7.00
2023-05-17T12:11:41.344Z,10.60
2023-05-17T12:12:41.325Z,9.30
2023-05-17T12:13:41.296Z,9.90
2023-05-17T12:14:41.264Z,8.00
2023-05-17T12:15:41.249Z,8.20
2023-05-17T12:16:41.224Z,9.20
2023-05-17T12:17:41.240Z,6.50
2023-05-17T12:18:41.330Z,9.00
2023-05-17T12:19:41.246Z,7.90
2023-05-17T12:20:41.126Z,8.90
2023-05-17T12:21:41.104Z,10.80
2023-05-17T12:22:41.089Z,11.60
2023-05-17T12:23:41.081Z,9.10
2023-05-17T12:24:41.134Z,10.50
2023-05-17T12:25:41.017Z,9.70
2023-05-17T12:26:41.029Z,9.10
2023-05-17T12:27:40.970Z,8.10
2023-05-17T12:28:40.964Z,9.60
2023-05-17T12:29:40.922Z,10.50
2023-05-17T12:30:40.911Z,9.40
2023-05-17T12:31:40.931Z,12.10
2023-05-17T12:32:40.986Z,8.90
2023-05-17T12:33:40.886Z,8.80
2023-05-17T12:34:40.895Z,8.20
2023-05-17T12:35:40.784Z,10.90
2023-05-17T12:36:40.794Z,11.70
2023-05-17T12:37:40.770Z,10.30
2023-05-17T12:38:40.816Z,10.20
2023-05-17T12:39:40.783Z,9.40
2023-05-17T12:40:42.045Z,12.30
2023-05-17T12:41:40.673Z,9.10
2023-05-17T12:42:40.646Z,11.10
2023-05-17T12:43:40.615Z,8.80
2023-05-17T12:44:40.586Z,8.80
2023-05-17T12:45:40.561Z,8.40
2023-05-17T12:46:40.544Z,10.00
2023-05-17T12:47:40.551Z,10.50
2023-05-17T12:48:40.555Z,9.00
2023-05-17T12:49:40.471Z,8.30
2023-05-17T12:50:40.464Z,9.00
2023-05-17T12:51:40.426Z,9.20
2023-05-17T12:52:40.397Z,8.60
2023-05-17T12:53:40.383Z,8.00
2023-05-17T12:54:40.353Z,11.20
2023-05-17T12:55:40.361Z,11.00
2023-05-17T12:56:40.319Z,9.10
2023-05-17T12:57:40.292Z,10.10
2023-05-17T12:58:40.294Z,11.40
2023-05-17T12:59:40.253Z,8.70
2023-05-17T13:00:40.220Z,12.50
2023-05-17T13:01:40.201Z,12.50
2023-05-17T13:02:41.250Z,8.90
2023-05-17T13:03:40.247Z,9.40
2023-05-17T13:04:40.250Z,9.20
2023-05-17T13:05:40.110Z,10.20